Rocky Mountain Metropolitan Airport
KBJC : now visible

Aeroporto :











RITROVATECI SU...

 
LOGIN :

Iscrizione | Disclaimer

   EN    FR    IT 

 









Sommario :    VFR   VFR Marginale   IFR   IFR Intensivo   IFR Molto Intensivo
Visibilità : 
Base nubi : 
>= 8 km
>= 3000ft
5 / 8 km
1000 / 3000 ft
1500m / 5 km
500 / 1000 ft
800 / 1500m
200 / 500 ft
< 800m
< 200 ft
Simboli :   Temporali  Nebbia  Neve Forte  Precipitazioni Forti  Vento > 20 kt






- Altitudine del aeroporto : 5673 ft


KBJC - Rocky Mountain Metropolitan

ULTIMO METAR :
  • 181845Z 20003KT 10SM FEW100 BKN150 03/M17 A3023

METARs OBSOLETI :
  • 181745Z 16007KT 10SM FEW100 BKN150 01/M17 A3024

TAF KBJC
Valido dal 18 a 18 ore il 19 a 18 ore UTC


181727Z 1818/1918 15008KT P6SM SCT120 BKN180
FM182000 03008KT P6SM SCT120 BKN180
FM190000 33007KT P6SM SCT200
FM190500 25005KT P6SM SCT200



MetMap, La meteo Aeronautica in un colpo d'occhio ! - Copyright ORBIFLY Dicembre 2007 - Disclaimer

ORBIFLY MET'MAP TEAM :

Programmazione e sviluppo : Alexandra Zaïnal
Concezione : Baudouin d'Aumeries
Aiuto per la programmazione : Marc-Olivier Méhu
Supporto tecnico e logistico : Manuel Goepfert
Aiuto per la traduzione : Arnaldo La Scala

Contatto : metmap@orbifly.com




FONTI E CREDITI :

   NOAA       Earth
Advisory